Excello, Missouri
Current Conditions -  °F | °C
As of 12:55 PM on Thursday 23 Oct 2014 (Local Time) from KIRK Reporting Station
Overcast Overcast  
Wind Chill: 65°   Ceiling: 6000
Heat Index: 65°   Visibility: 10mi
Dew Point: 55°   Wind: 12mph
Humidity: 70%   Direction: 200°SSW
Pressure: 30.1"   Gusts: NA
Location:  39.64°N, 92.48°W
Report Text: KIRK 231755Z AUTO 20010KT 10SM FEW047 OVC060 18/13 A3010 RMK AO2 SLP196 T01830128 10189 20106 58010
Loading
Personal Weather Stations






























Interactive Weather Map
Tropical Storm Tracking
New forecast layout! Learn more

10-Day Weather Forecast

Advertisements
Track Severe Weather on mobile